Time;durP1;ratioP1;P1;durP2;ratioP2;P2;SDS_P1;SDS_P2;PMS_P1;PMS_P2;Temp;Humidity;BMP_temperature;BMP_pressure;BME280_temperature;BME280_humidity;BME280_pressure;Samples;Min_cycle;Max_cycle;Signal;HPM_P1;HPM_P2
2021/01/30 00:00:21;;;;;;;7.40;3.97;;;7.90;84.90;;;;;;5057662;28;20136;-75
2021/01/30 00:02:47;;;;;;;10.40;4.43;;;7.90;84.80;;;;;;5073169;28;20028;-76
2021/01/30 00:05:13;;;;;;;11.37;3.87;;;7.90;85.10;;;;;;5072453;28;20032;-76
2021/01/30 00:07:39;;;;;;;16.13;6.53;;;7.90;85.30;;;;;;5088622;28;20027;-76
2021/01/30 00:10:05;;;;;;;11.27;5.93;;;7.80;85.50;;;;;;5069140;28;20036;-76
2021/01/30 00:12:31;;;;;;;10.87;4.83;;;7.90;86.10;;;;;;5071771;28;20028;-76
2021/01/30 00:14:57;;;;;;;9.13;4.17;;;7.80;85.80;;;;;;5069134;28;20111;-76
2021/01/30 00:17:23;;;;;;;15.57;6.03;;;7.80;85.80;;;;;;5086884;28;20028;-76
2021/01/30 00:19:48;;;;;;;12.00;5.57;;;7.70;86.00;;;;;;5091298;28;20028;-76
2021/01/30 00:22:17;;;;;;;11.90;4.30;;;7.70;86.30;;;;;;5073183;28;20151;-76
2021/01/30 00:24:43;;;;;;;13.17;5.10;;;7.70;86.10;;;;;;5070512;28;20056;-77
2021/01/30 00:27:11;;;;;;;13.77;4.77;;;7.60;86.30;;;;;;5070614;28;20056;-75
2021/01/30 00:29:37;;;;;;;14.53;5.63;;;7.50;86.30;;;;;;5069757;28;20028;-75
2021/01/30 00:32:03;;;;;;;16.23;6.00;;;7.50;86.60;;;;;;5073090;28;20089;-75
2021/01/30 00:34:30;;;;;;;19.50;6.77;;;7.40;86.70;;;;;;5069692;28;20048;-74
2021/01/30 00:37:01;;;;;;;17.70;8.53;;;7.40;86.80;;;;;;5055964;28;20048;-76
2021/01/30 00:39:26;;;;;;;15.90;6.30;;;7.30;87.00;;;;;;5085236;28;20124;-74
2021/01/30 00:41:52;;;;;;;17.33;4.90;;;7.20;86.80;;;;;;5073169;28;20057;-74
2021/01/30 00:44:18;;;;;;;9.83;5.00;;;7.10;87.10;;;;;;5085557;28;20099;-74
2021/01/30 00:46:48;;;;;;;14.67;6.07;;;7.10;87.20;;;;;;5080692;28;20036;-74
2021/01/30 00:49:14;;;;;;;11.80;5.57;;;7.10;87.50;;;;;;5084291;28;20434;-74
2021/01/30 00:51:40;;;;;;;12.10;7.07;;;7.20;87.60;;;;;;5069424;28;20090;-74
2021/01/30 00:54:05;;;;;;;15.83;6.90;;;7.20;87.80;;;;;;5055546;28;20040;-75
2021/01/30 00:56:31;;;;;;;11.03;6.00;;;7.30;87.90;;;;;;5069813;28;20032;-74
2021/01/30 00:58:56;;;;;;;10.87;6.70;;;7.20;87.50;;;;;;5088748;28;20059;-77
2021/01/30 01:01:22;;;;;;;20.83;9.53;;;7.30;87.70;;;;;;5068968;28;20140;-74
2021/01/30 01:03:48;;;;;;;18.67;13.27;;;7.20;86.70;;;;;;5083585;28;20072;-76
2021/01/30 01:06:13;;;;;;;21.53;13.77;;;7.00;86.00;;;;;;5062692;28;20468;-74
2021/01/30 01:08:39;;;;;;;23.63;14.83;;;6.90;86.30;;;;;;5073378;28;20447;-75
2021/01/30 01:11:05;;;;;;;26.83;16.13;;;6.70;86.00;;;;;;5079912;28;20082;-76
2021/01/30 01:13:31;;;;;;;23.43;15.33;;;6.60;86.50;;;;;;5063681;28;20036;-76
2021/01/30 01:15:57;;;;;;;22.13;15.00;;;6.50;86.70;;;;;;5090577;28;20479;-76
2021/01/30 01:18:24;;;;;;;29.37;16.80;;;6.40;86.60;;;;;;5090705;28;20032;-75
2021/01/30 01:20:49;;;;;;;24.57;15.30;;;6.40;87.00;;;;;;5072622;28;20115;-76
2021/01/30 01:23:15;;;;;;;25.10;16.77;;;6.30;86.10;;;;;;5088831;28;20106;-75
2021/01/30 01:25:41;;;;;;;32.07;15.23;;;6.20;86.70;;;;;;5089959;28;20457;-75
2021/01/30 01:28:07;;;;;;;31.77;15.67;;;6.20;85.90;;;;;;5072023;28;20507;-76
2021/01/30 01:30:32;;;;;;;25.30;14.93;;;6.00;86.10;;;;;;5088902;28;20024;-76
2021/01/30 01:32:58;;;;;;;28.57;16.97;;;6.00;86.40;;;;;;5088889;28;20043;-76
2021/01/30 01:35:28;;;;;;;26.70;13.63;;;6.10;87.00;;;;;;5058324;28;20048;-77
2021/01/30 01:37:54;;;;;;;25.73;15.10;;;6.10;85.90;;;;;;5070619;28;20060;-76
2021/01/30 01:40:25;;;;;;;28.57;14.17;;;6.00;86.20;;;;;;5051739;28;20021;-76
2021/01/30 01:43:00;;;;;;;23.73;13.87;;;5.90;85.50;;;;;;5074394;28;20031;-76
2021/01/30 01:45:27;;;;;;;25.30;14.87;;;5.70;85.30;;;;;;5072817;28;20121;-77
2021/01/30 01:47:54;;;;;;;27.57;14.90;;;5.60;85.20;;;;;;5088318;28;20074;-76
2021/01/30 01:50:35;;;;;;;23.53;15.23;;;5.50;85.10;;;;;;5075264;28;20028;-76
2021/01/30 01:53:26;;;;;;;17.80;12.67;;;5.40;85.80;;;;;;5092471;28;20409;-76
2021/01/30 01:56:03;;;;;;;18.87;10.70;;;5.50;85.60;;;;;;5091710;28;20047;-75
2021/01/30 01:58:34;;;;;;;10.17;8.30;;;5.40;84.70;;;;;;5081428;28;20024;-76
2021/01/30 02:01:00;;;;;;;13.33;9.03;;;5.20;83.50;;;;;;5092285;28;20468;-76
2021/01/30 02:03:27;;;;;;;15.50;9.63;;;5.20;83.70;;;;;;5065508;28;20032;-76
2021/01/30 02:05:53;;;;;;;11.50;7.77;;;5.10;83.80;;;;;;5087841;28;20059;-76
2021/01/30 02:08:20;;;;;;;8.07;7.20;;;5.00;83.20;;;;;;5067244;28;20029;-77
2021/01/30 02:10:51;;;;;;;8.63;6.47;;;5.00;82.00;;;;;;5071518;28;20020;-76
2021/01/30 02:13:24;;;;;;;10.37;6.77;;;4.90;82.00;;;;;;5073945;28;20024;-76
2021/01/30 02:15:55;;;;;;;8.50;6.05;;;4.80;81.40;;;;;;5072529;28;20032;-76
2021/01/30 02:18:31;;;;;;;9.10;6.13;;;4.80;81.50;;;;;;5087686;28;20034;-76
2021/01/30 02:21:45;;;;;;;7.50;5.90;;;4.80;82.00;;;;;;5091286;28;20085;-76
2021/01/30 02:24:29;;;;;;;6.13;5.53;;;4.70;82.10;;;;;;5083893;28;20040;-75
2021/01/30 02:27:34;;;;;;;6.17;5.23;;;4.70;82.00;;;;;;5091954;28;20357;-76
2021/01/30 02:30:30;;;;;;;7.00;5.37;;;4.70;82.30;;;;;;5071517;28;20468;-76
2021/01/30 02:33:24;;;;;;;5.97;5.37;;;4.80;82.80;;;;;;5073706;28;20105;-76
2021/01/30 02:36:08;;;;;;;8.80;5.67;;;4.90;83.10;;;;;;5077069;28;20052;-76
2021/01/30 02:38:39;;;;;;;9.83;4.83;;;4.80;82.70;;;;;;5090003;28;20495;-76
2021/01/30 02:41:14;;;;;;;7.20;4.87;;;4.90;82.70;;;;;;5076484;28;20032;-75
2021/01/30 02:43:43;;;;;;;13.23;5.90;;;4.80;82.40;;;;;;5071731;28;20017;-75
2021/01/30 02:46:19;;;;;;;8.50;5.63;;;4.90;83.90;;;;;;5085090;28;20399;-76
2021/01/30 02:48:49;;;;;;;6.90;5.13;;;5.00;83.30;;;;;;5081755;28;20398;-76
2021/01/30 02:51:21;;;;;;;7.40;5.60;;;5.00;83.20;;;;;;5069985;28;20028;-76
2021/01/30 02:53:55;;;;;;;6.63;5.05;;;4.90;83.20;;;;;;5071246;28;20032;-76
2021/01/30 02:56:22;;;;;;;7.60;6.30;;;5.00;83.10;;;;;;5070976;28;20020;-76
2021/01/30 02:59:01;;;;;;;8.20;6.77;;;5.00;83.80;;;;;;5077450;28;20103;-76
2021/01/30 03:01:28;;;;;;;11.37;8.33;;;5.00;83.20;;;;;;5092414;28;20387;-77
2021/01/30 03:03:58;;;;;;;9.57;8.37;;;5.10;83.80;;;;;;5072663;28;20036;-77
2021/01/30 03:06:31;;;;;;;9.77;8.37;;;5.00;82.80;;;;;;5092042;28;20035;-76
2021/01/30 03:09:16;;;;;;;11.15;9.07;;;4.80;82.30;;;;;;5087319;28;20029;-76
2021/01/30 03:11:58;;;;;;;8.97;8.10;;;4.90;83.10;;;;;;5078349;28;20020;-77
2021/01/30 03:14:25;;;;;;;11.00;8.65;;;4.80;82.30;;;;;;5086798;28;20037;-76
2021/01/30 03:16:55;;;;;;;11.10;9.17;;;4.60;81.20;;;;;;5095731;28;20035;-76
2021/01/30 03:19:25;;;;;;;10.60;9.60;;;4.60;81.60;;;;;;5094473;28;20460;-76
2021/01/30 03:21:59;;;;;;;9.97;8.40;;;4.60;82.30;;;;;;5084761;28;20108;-76
2021/01/30 03:24:26;;;;;;;10.77;9.23;;;4.60;81.60;;;;;;5071191;28;20043;-75
2021/01/30 03:26:52;;;;;;;12.30;10.57;;;4.40;81.80;;;;;;5066551;28;20622;-76
2021/01/30 03:29:19;;;;;;;14.07;11.83;;;4.30;81.80;;;;;;5082695;28;20165;-76
2021/01/30 03:31:46;;;;;;;11.60;10.40;;;4.10;81.90;;;;;;5069870;28;20086;-76
2021/01/30 03:34:14;;;;;;;14.87;12.60;;;4.10;82.70;;;;;;5070597;28;20063;-76
2021/01/30 03:36:40;;;;;;;15.60;13.03;;;4.10;83.20;;;;;;5069086;28;20551;-76
2021/01/30 03:39:15;;;;;;;17.53;13.37;;;4.30;84.00;;;;;;5083641;28;20043;-76
2021/01/30 03:41:42;;;;;;;15.80;13.30;;;4.40;84.30;;;;;;5089295;28;20062;-76
2021/01/30 03:44:08;;;;;;;18.73;15.37;;;4.20;83.00;;;;;;5079180;28;20032;-76
2021/01/30 03:46:34;;;;;;;22.37;16.37;;;4.00;82.30;;;;;;5089462;28;20028;-76
2021/01/30 03:48:59;;;;;;;30.07;17.93;;;3.90;83.30;;;;;;5080895;28;20034;-76
2021/01/30 03:51:25;;;;;;;27.17;19.70;;;4.00;84.40;;;;;;5082859;28;20052;-76
2021/01/30 03:53:50;;;;;;;32.20;23.97;;;3.90;83.40;;;;;;5052785;28;20515;-76
2021/01/30 03:56:16;;;;;;;33.17;23.40;;;3.50;82.50;;;;;;5074621;28;20024;-76
2021/01/30 03:58:45;;;;;;;34.43;24.47;;;3.40;83.40;;;;;;5072755;28;20536;-75
2021/01/30 04:01:11;;;;;;;32.17;23.27;;;3.20;83.10;;;;;;5053496;28;20044;-75
2021/01/30 04:03:37;;;;;;;34.23;23.73;;;3.10;83.30;;;;;;5074392;28;20040;-76
2021/01/30 04:06:03;;;;;;;34.67;24.73;;;3.00;84.50;;;;;;5071515;28;20086;-75
2021/01/30 04:08:28;;;;;;;32.83;23.27;;;3.10;83.60;;;;;;5069925;28;20349;-76
2021/01/30 04:10:54;;;;;;;36.43;24.27;;;3.10;84.40;;;;;;5085064;28;20463;-76
2021/01/30 04:13:20;;;;;;;38.37;25.10;;;2.90;84.20;;;;;;5063959;28;20439;-77
2021/01/30 04:15:46;;;;;;;37.20;25.73;;;3.10;85.10;;;;;;5069286;28;20078;-75
2021/01/30 04:18:12;;;;;;;37.37;25.40;;;3.00;84.80;;;;;;5076645;28;20118;-76
2021/01/30 04:20:39;;;;;;;39.50;26.63;;;3.00;84.70;;;;;;5052157;28;20063;-75
2021/01/30 04:23:05;;;;;;;37.33;25.77;;;2.80;84.50;;;;;;5074315;28;20024;-75
2021/01/30 04:25:32;;;;;;;43.37;29.83;;;2.90;85.60;;;;;;5088535;28;20028;-76
2021/01/30 04:27:58;;;;;;;41.03;28.97;;;2.90;86.00;;;;;;5071199;28;20043;-75
2021/01/30 04:30:27;;;;;;;40.77;29.03;;;2.80;85.10;;;;;;5069428;28;20062;-77
2021/01/30 04:32:53;;;;;;;41.03;29.27;;;2.50;84.80;;;;;;5075195;28;20039;-75
2021/01/30 04:35:29;;;;;;;43.87;31.00;;;2.30;85.00;;;;;;5084662;28;20033;-75
2021/01/30 04:37:55;;;;;;;39.83;28.87;;;2.30;86.10;;;;;;5075969;28;20055;-76
2021/01/30 04:40:36;;;;;;;37.73;26.83;;;2.30;85.70;;;;;;5024239;28;20040;-76
2021/01/30 04:43:14;;;;;;;37.00;25.57;;;2.20;85.60;;;;;;5033569;28;20028;-76
2021/01/30 04:46:12;;;;;;;33.10;24.67;;;2.20;84.70;;;;;;5032661;28;20033;-76
2021/01/30 04:49:06;;;;;;;35.70;25.53;;;2.10;84.30;;;;;;5058261;28;20516;-75
2021/01/30 04:51:53;;;;;;;32.27;24.23;;;2.10;85.20;;;;;;5038285;28;20065;-75
2021/01/30 04:54:29;;;;;;;33.73;24.67;;;2.10;84.50;;;;;;5063550;28;20370;-76
2021/01/30 04:57:09;;;;;;;31.33;24.33;;;2.00;84.60;;;;;;5046655;28;20017;-76
2021/01/30 04:59:43;;;;;;;31.67;23.87;;;2.00;84.80;;;;;;5032337;28;20079;-76
2021/01/30 05:02:38;;;;;;;34.03;24.90;;;1.90;84.50;;;;;;5032855;28;20040;-76
2021/01/30 05:05:06;;;;;;;30.97;23.70;;;2.00;85.00;;;;;;5049514;28;20033;-75
2021/01/30 05:07:45;;;;;;;33.80;23.80;;;2.00;84.30;;;;;;5052761;28;20024;-75
2021/01/30 05:10:20;;;;;;;31.40;23.50;;;1.90;84.00;;;;;;5062354;28;20488;-76
2021/01/30 05:13:03;;;;;;;29.80;22.50;;;1.90;84.30;;;;;;5050201;28;20048;-75
2021/01/30 05:15:42;;;;;;;29.90;22.73;;;1.80;84.40;;;;;;5032693;28;20037;-77
2021/01/30 05:18:32;;;;;;;30.97;23.23;;;1.80;84.00;;;;;;5043022;28;20021;-76
2021/01/30 05:21:10;;;;;;;32.33;22.67;;;1.80;84.30;;;;;;5075838;28;20024;-75
2021/01/30 05:23:37;;;;;;;31.43;23.40;;;1.80;84.40;;;;;;5054707;28;20040;-75
2021/01/30 05:26:27;;;;;;;31.67;23.40;;;1.80;84.30;;;;;;5040331;28;20137;-75
2021/01/30 05:28:52;;;;;;;33.03;24.03;;;1.80;84.60;;;;;;5060064;28;20409;-75
2021/01/30 05:31:43;;;;;;;34.70;24.90;;;1.80;84.50;;;;;;5056151;28;20499;-75
2021/01/30 05:34:11;;;;;;;35.53;25.13;;;1.80;84.50;;;;;;5036742;28;20048;-76
2021/01/30 05:37:04;;;;;;;33.53;23.30;;;1.80;84.10;;;;;;5055276;28;20616;-75
2021/01/30 05:39:42;;;;;;;32.25;25.02;;;1.70;84.40;;;;;;5073719;28;20074;-75
2021/01/30 05:42:17;;;;;;;36.30;25.53;;;1.60;83.70;;;;;;5073089;28;20166;-75
2021/01/30 05:44:53;;;;;;;33.83;25.10;;;1.60;84.40;;;;;;5086558;28;20363;-75
2021/01/30 05:47:28;;;;;;;35.37;25.00;;;1.60;84.40;;;;;;5093477;28;20027;-75
2021/01/30 05:50:32;;;;;;;36.73;25.80;;;1.60;84.30;;;;;;5091644;28;20016;-75
2021/01/30 05:53:00;;;;;;;34.73;24.57;;;1.60;84.30;;;;;;5069821;28;20055;-76
2021/01/30 05:55:35;;;;;;;37.67;25.47;;;1.50;83.80;;;;;;5074640;28;20028;-75
2021/01/30 05:58:09;;;;;;;32.67;24.33;;;1.60;84.50;;;;;;5073383;28;20068;-75
2021/01/30 06:00:36;;;;;;;35.70;25.87;;;1.50;83.90;;;;;;5090958;28;20032;-78
2021/01/30 06:03:09;;;;;;;35.13;24.20;;;1.50;84.20;;;;;;5090896;28;20166;-75
2021/01/30 06:05:45;;;;;;;33.03;24.43;;;1.60;84.50;;;;;;5093856;28;20111;-77
2021/01/30 06:08:30;;;;;;;34.57;25.60;;;1.60;84.80;;;;;;5092492;28;20032;-75
2021/01/30 06:11:16;;;;;;;33.30;24.30;;;1.60;84.60;;;;;;5074808;28;20044;-75
2021/01/30 06:14:02;;;;;;;34.90;25.10;;;1.60;83.40;;;;;;5071237;28;20080;-76
2021/01/30 06:16:40;;;;;;;30.20;22.53;;;1.50;83.60;;;;;;5072565;28;20365;-75
2021/01/30 06:19:11;;;;;;;28.90;21.30;;;1.50;83.50;;;;;;5078874;28;20472;-74
2021/01/30 06:21:37;;;;;;;29.20;22.33;;;1.50;83.50;;;;;;5082919;28;20024;-76
2021/01/30 06:24:24;;;;;;;30.00;21.17;;;1.40;83.70;;;;;;5084823;28;20082;-76
2021/01/30 06:26:50;;;;;;;29.43;21.67;;;1.40;83.70;;;;;;5078906;28;20124;-74
2021/01/30 06:29:42;;;;;;;31.73;22.77;;;1.40;84.00;;;;;;5087617;28;20134;-73
2021/01/30 06:32:20;;;;;;;31.27;22.40;;;1.50;83.90;;;;;;5090796;28;20020;-74
2021/01/30 06:35:06;;;;;;;33.93;23.37;;;1.40;83.60;;;;;;5091691;28;20155;-74
2021/01/30 06:37:43;;;;;;;31.57;22.87;;;1.40;83.90;;;;;;5080278;28;20071;-75
2021/01/30 06:40:17;;;;;;;35.70;24.23;;;1.50;84.10;;;;;;5073753;28;20079;-76
2021/01/30 06:42:45;;;;;;;34.27;24.37;;;1.50;84.00;;;;;;5085321;28;20024;-77
2021/01/30 06:45:31;;;;;;;38.50;26.17;;;1.40;83.90;;;;;;5092210;28;20035;-75
2021/01/30 06:47:56;;;;;;;37.73;26.50;;;1.40;84.10;;;;;;5072504;28;20089;-75
2021/01/30 06:50:37;;;;;;;42.60;27.43;;;1.40;84.10;;;;;;5061395;28;20028;-75
2021/01/30 06:53:41;;;;;;;41.23;28.10;;;1.30;84.60;;;;;;5091683;28;20612;-76
2021/01/30 06:56:14;;;;;;;42.43;28.03;;;1.40;84.60;;;;;;5082337;28;20047;-75
2021/01/30 06:58:42;;;;;;;44.70;29.43;;;1.40;84.80;;;;;;5092305;28;20020;-74
2021/01/30 07:01:19;;;;;;;45.30;30.43;;;1.30;84.70;;;;;;5091237;28;20095;-74
2021/01/30 07:04:20;;;;;;;41.67;28.97;;;1.30;85.20;;;;;;5077074;28;20044;-80
2021/01/30 07:06:56;;;;;;;42.13;29.47;;;1.30;84.90;;;;;;5072208;28;20020;-79
2021/01/30 07:10:05;;;;;;;42.60;28.20;;;1.30;84.40;;;;;;5071689;28;20036;-76
2021/01/30 07:12:52;;;;;;;42.33;28.43;;;1.30;85.40;;;;;;5074287;28;20077;-75
2021/01/30 07:15:31;;;;;;;40.87;27.63;;;1.30;85.10;;;;;;5072850;28;20089;-77
2021/01/30 07:18:09;;;;;;;37.60;27.20;;;1.30;84.90;;;;;;5071088;28;20638;-75
2021/01/30 07:20:46;;;;;;;40.07;26.97;;;1.30;84.30;;;;;;5071277;28;20029;-77
2021/01/30 07:23:23;;;;;;;35.70;25.53;;;1.30;84.50;;;;;;5074699;28;20024;-77
2021/01/30 07:26:05;;;;;;;37.63;25.10;;;1.30;84.30;;;;;;5071666;28;20024;-79
2021/01/30 07:28:40;;;;;;;38.30;26.60;;;1.40;84.40;;;;;;5076460;28;20379;-77
2021/01/30 07:31:26;;;;;;;37.90;25.93;;;1.40;83.80;;;;;;5087730;28;20024;-77
2021/01/30 07:34:21;;;;;;;40.07;27.47;;;1.40;84.00;;;;;;5088228;28;20122;-79
2021/01/30 07:37:00;;;;;;;39.70;27.27;;;1.40;83.90;;;;;;5074883;28;20051;-78
2021/01/30 07:39:39;;;;;;;36.17;26.47;;;1.40;83.90;;;;;;5043261;28;20063;-77
2021/01/30 07:42:26;;;;;;;39.47;27.83;;;1.40;83.90;;;;;;5059923;28;20032;-78
2021/01/30 07:45:10;;;;;;;36.37;26.47;;;1.40;83.90;;;;;;5043810;28;20027;-78
2021/01/30 07:47:53;;;;;;;37.83;26.47;;;1.30;83.90;;;;;;5045026;28;20492;-77
2021/01/30 07:50:23;;;;;;;37.23;26.37;;;1.30;83.40;;;;;;5047324;28;20472;-78
2021/01/30 07:53:04;;;;;;;40.40;27.13;;;1.30;83.40;;;;;;5053682;28;20021;-77
2021/01/30 07:55:30;;;;;;;35.60;26.50;;;1.30;83.40;;;;;;5039688;28;20389;-76
2021/01/30 07:58:14;;;;;;;40.57;27.83;;;1.30;83.10;;;;;;5034423;28;20033;-79
2021/01/30 08:01:01;;;;;;;39.13;28.13;;;1.30;83.30;;;;;;5033691;28;20103;-77
2021/01/30 08:04:02;;;;;;;41.23;28.50;;;1.30;83.20;;;;;;5048147;28;20071;-77
2021/01/30 08:06:56;;;;;;;38.17;26.57;;;1.40;83.60;;;;;;5045090;28;20040;-78
2021/01/30 08:09:53;;;;;;;41.70;29.53;;;1.30;83.00;;;;;;5053243;28;20028;-77
2021/01/30 08:12:54;;;;;;;38.70;28.13;;;1.30;83.30;;;;;;5038368;28;20033;-76
2021/01/30 08:15:32;;;;;;;40.47;29.50;;;1.30;82.90;;;;;;5058448;28;20056;-78
2021/01/30 08:18:33;;;;;;;42.50;30.70;;;1.30;83.20;;;;;;5040112;28;20119;-76
2021/01/30 08:21:19;;;;;;;38.43;28.70;;;1.30;83.20;;;;;;5058500;28;20029;-79
2021/01/30 08:23:53;;;;;;;41.30;29.77;;;1.30;83.00;;;;;;5055222;28;20128;-79
2021/01/30 08:26:25;;;;;;;43.63;29.90;;;1.30;82.70;;;;;;5038942;28;20021;-77
2021/01/30 08:29:11;;;;;;;38.30;27.83;;;1.30;83.00;;;;;;5037862;28;20504;-78
2021/01/30 08:31:37;;;;;;;37.30;28.07;;;1.40;82.70;;;;;;5055748;28;20032;-77
2021/01/30 08:34:26;;;;;;;33.03;25.33;;;1.40;82.80;;;;;;5041358;28;20040;-78
2021/01/30 08:37:01;;;;;;;31.80;24.50;;;1.40;82.40;;;;;;5056815;28;20523;-78
2021/01/30 08:39:28;;;;;;;31.70;24.00;;;1.50;82.20;;;;;;5067963;28;20047;-78
2021/01/30 08:42:18;;;;;;;33.63;25.03;;;1.50;82.20;;;;;;5071089;28;20033;-78
2021/01/30 08:45:00;;;;;;;28.93;22.37;;;1.50;82.20;;;;;;5067159;28;20036;-77
2021/01/30 08:47:28;;;;;;;28.40;22.10;;;1.50;81.70;;;;;;5039012;28;20078;-78
2021/01/30 08:50:03;;;;;;;27.77;21.27;;;1.50;81.30;;;;;;5071331;28;20067;-78
2021/01/30 08:52:54;;;;;;;30.43;22.53;;;1.50;80.80;;;;;;5056725;28;20357;-76
2021/01/30 08:55:49;;;;;;;26.70;20.47;;;1.40;81.80;;;;;;5066312;28;20624;-76
2021/01/30 08:58:36;;;;;;;25.57;20.67;;;1.50;81.20;;;;;;5048181;28;20047;-78
2021/01/30 09:01:10;;;;;;;24.13;20.10;;;1.50;80.70;;;;;;5037013;28;20032;-76
2021/01/30 09:03:50;;;;;;;26.03;19.67;;;1.40;80.50;;;;;;5037112;28;20124;-77
2021/01/30 09:06:40;;;;;;;25.13;19.87;;;1.40;80.70;;;;;;5036261;28;20025;-78
2021/01/30 09:09:10;;;;;;;24.77;19.80;;;1.50;80.80;;;;;;5036068;28;20053;-79
2021/01/30 09:11:56;;;;;;;21.97;18.47;;;1.50;80.50;;;;;;5035341;28;20017;-79
2021/01/30 09:14:21;;;;;;;24.27;19.47;;;1.40;79.80;;;;;;5046327;28;20090;-77
2021/01/30 09:17:05;;;;;;;22.07;18.03;;;1.40;79.70;;;;;;5047750;28;20028;-77
2021/01/30 09:19:56;;;;;;;21.30;16.97;;;1.50;79.60;;;;;;5053409;28;20078;-77
2021/01/30 09:22:38;;;;;;;23.60;19.30;;;1.50;78.90;;;;;;5049460;28;20240;-77
2021/01/30 09:25:24;;;;;;;23.08;18.65;;;1.50;79.70;;;;;;5054880;28;20032;-76
2021/01/30 09:28:02;;;;;;;21.57;18.00;;;1.50;79.80;;;;;;5055663;28;20028;-75
2021/01/30 09:30:30;;;;;;;23.60;18.93;;;1.60;79.30;;;;;;5044585;28;20021;-75
2021/01/30 09:32:56;;;;;;;21.27;18.23;;;1.60;79.20;;;;;;5037012;28;20048;-77
2021/01/30 09:35:28;;;;;;;22.70;18.47;;;1.60;78.50;;;;;;5036307;28;20113;-76
2021/01/30 09:37:54;;;;;;;21.60;17.10;;;1.60;78.90;;;;;;5062807;28;20484;-76
2021/01/30 09:40:27;;;;;;;24.77;19.60;;;1.70;78.40;;;;;;5087104;28;20031;-75
2021/01/30 09:42:58;;;;;;;20.73;17.65;;;1.60;78.60;;;;;;5093915;28;20020;-76
2021/01/30 09:45:24;;;;;;;22.47;17.73;;;1.60;77.90;;;;;;5093271;28;20035;-76
2021/01/30 09:47:52;;;;;;;21.70;18.43;;;1.60;78.80;;;;;;5076847;28;20031;-75
2021/01/30 09:50:23;;;;;;;20.93;16.27;;;1.70;79.00;;;;;;5092922;28;20028;-76
2021/01/30 09:52:57;;;;;;;23.37;16.87;;;1.80;78.30;;;;;;5087715;28;20026;-75
2021/01/30 09:55:24;;;;;;;18.40;16.07;;;1.80;78.30;;;;;;5077726;28;20036;-75
2021/01/30 09:57:51;;;;;;;19.40;16.77;;;1.80;77.50;;;;;;5071772;28;20039;-76
2021/01/30 10:00:31;;;;;;;18.97;15.37;;;1.70;77.80;;;;;;5072455;28;20365;-76
2021/01/30 10:03:33;;;;;;;17.20;15.07;;;1.80;78.40;;;;;;5072901;28;20036;-77
2021/01/30 10:06:13;;;;;;;16.37;12.77;;;1.80;78.00;;;;;;5063586;28;20398;-78
2021/01/30 10:08:39;;;;;;;15.97;13.93;;;1.80;77.20;;;;;;5073150;28;20020;-77
2021/01/30 10:11:13;;;;;;;15.37;13.20;;;1.80;77.80;;;;;;5073443;28;20047;-80
2021/01/30 10:13:54;;;;;;;14.70;13.20;;;1.90;77.70;;;;;;5082546;28;20078;-78
2021/01/30 10:16:23;;;;;;;14.30;12.70;;;1.90;77.20;;;;;;5093477;28;20115;-77
2021/01/30 10:18:53;;;;;;;12.83;11.13;;;1.90;77.20;;;;;;5093397;28;20098;-79
2021/01/30 10:21:36;;;;;;;12.67;10.20;;;2.10;76.70;;;;;;5080417;28;20021;-78
2021/01/30 10:24:11;;;;;;;11.10;9.80;;;2.10;76.40;;;;;;5083224;28;20432;-77
2021/01/30 10:26:37;;;;;;;17.43;10.40;;;2.20;75.80;;;;;;5086659;28;20105;-77
2021/01/30 10:29:13;;;;;;;13.70;10.50;;;2.30;76.40;;;;;;5093492;28;20087;-78
2021/01/30 10:31:45;;;;;;;10.60;9.50;;;2.30;75.90;;;;;;5092500;28;20020;-78
2021/01/30 10:34:30;;;;;;;10.52;8.77;;;2.30;74.90;;;;;;5092736;28;20040;-78
2021/01/30 10:37:18;;;;;;;12.40;9.43;;;2.20;75.10;;;;;;5092741;28;20190;-77
2021/01/30 10:39:59;;;;;;;11.10;9.43;;;2.20;75.30;;;;;;5091987;28;20110;-78
2021/01/30 10:42:30;;;;;;;12.90;10.17;;;2.10;75.20;;;;;;5071414;28;20043;-78
2021/01/30 10:45:00;;;;;;;13.43;9.20;;;2.20;76.20;;;;;;5084863;28;20032;-76
2021/01/30 10:47:27;;;;;;;12.57;8.60;;;2.20;75.70;;;;;;5073253;28;20147;-77
2021/01/30 10:50:23;;;;;;;11.20;8.63;;;2.20;75.10;;;;;;5073260;28;20037;-78
2021/01/30 10:52:49;;;;;;;11.23;8.20;;;2.20;75.00;;;;;;5072111;28;20028;-77
2021/01/30 10:55:31;;;;;;;15.80;8.80;;;2.10;75.20;;;;;;5046511;28;20256;-78
2021/01/30 10:58:16;;;;;;;11.77;9.07;;;2.10;75.00;;;;;;5083928;28;20120;-77
2021/01/30 11:00:53;;;;;;;10.47;9.10;;;2.10;75.70;;;;;;5091675;28;20027;-77
2021/01/30 11:03:23;;;;;;;12.43;10.10;;;2.10;75.90;;;;;;5068262;28;20036;-77
2021/01/30 11:05:48;;;;;;;11.27;8.83;;;2.10;75.60;;;;;;5085304;28;20024;-77
2021/01/30 11:08:29;;;;;;;10.27;9.07;;;2.00;75.40;;;;;;5056784;28;20337;-77
2021/01/30 11:11:06;;;;;;;11.83;9.30;;;2.00;75.70;;;;;;5074131;28;20035;-77
2021/01/30 11:13:38;;;;;;;9.37;8.23;;;2.00;76.10;;;;;;5074730;28;20034;-79
2021/01/30 11:16:12;;;;;;;10.27;8.77;;;2.00;75.80;;;;;;5072272;28;20063;-77
2021/01/30 11:18:50;;;;;;;9.63;8.63;;;2.10;75.50;;;;;;5071900;28;20048;-78
2021/01/30 11:21:33;;;;;;;13.20;10.37;;;2.10;76.00;;;;;;5072866;28;20032;-77
2021/01/30 11:24:14;;;;;;;;;;;2.20;76.60;;;;;;5072684;28;20484;-78
2021/01/30 11:26:41;;;;;;;9.73;8.73;;;2.30;76.00;;;;;;5074131;28;19905;-76
2021/01/30 11:29:36;;;;;;;9.13;7.70;;;2.30;75.60;;;;;;5073424;28;20021;-77
2021/01/30 11:32:05;;;;;;;8.93;8.00;;;2.30;74.80;;;;;;5083058;28;20039;-77
2021/01/30 11:34:31;;;;;;;12.57;8.17;;;2.30;74.40;;;;;;5090874;28;20059;-76
2021/01/30 11:36:57;;;;;;;12.67;8.60;;;2.30;75.20;;;;;;5058142;28;20086;-78
2021/01/30 11:39:29;;;;;;;10.63;9.20;;;2.40;75.00;;;;;;5073993;28;20092;-79
2021/01/30 11:41:55;;;;;;;14.05;10.70;;;2.50;75.40;;;;;;5092702;28;20036;-76
2021/01/30 11:44:21;;;;;;;12.40;9.87;;;2.70;76.10;;;;;;5075599;28;20118;-77
2021/01/30 11:46:48;;;;;;;11.80;9.67;;;2.90;75.00;;;;;;5093715;28;20784;-76
2021/01/30 11:49:14;;;;;;;11.47;9.07;;;2.90;74.60;;;;;;5094879;28;20470;-78
2021/01/30 11:51:39;;;;;;;10.77;9.53;;;2.80;73.90;;;;;;5062410;28;20029;-77
2021/01/30 11:54:05;;;;;;;11.00;9.43;;;2.70;74.30;;;;;;5045954;28;20039;-78
2021/01/30 11:56:31;;;;;;;12.90;10.70;;;2.70;74.50;;;;;;5078796;28;20024;-84
2021/01/30 11:58:56;;;;;;;13.33;10.67;;;2.70;74.70;;;;;;5077774;28;20032;-79
2021/01/30 12:01:22;;;;;;;20.20;11.03;;;2.70;75.20;;;;;;5057834;28;20028;-78
2021/01/30 12:03:48;;;;;;;10.13;9.00;;;2.80;75.40;;;;;;5075826;28;20178;-76
2021/01/30 12:06:14;;;;;;;10.73;9.27;;;2.80;74.40;;;;;;5054211;28;20116;-80
2021/01/30 12:08:40;;;;;;;15.17;11.10;;;2.70;74.80;;;;;;5053610;28;20021;-77
2021/01/30 12:11:06;;;;;;;12.60;10.47;;;2.70;76.00;;;;;;5053514;28;20063;-77
2021/01/30 12:13:33;;;;;;;10.53;9.23;;;2.90;76.10;;;;;;5067036;28;20040;-77
2021/01/30 12:15:59;;;;;;;10.63;9.53;;;2.90;75.30;;;;;;5054010;28;20021;-78
2021/01/30 12:18:24;;;;;;;10.53;9.43;;;2.80;75.30;;;;;;5071057;28;20097;-78
2021/01/30 12:20:52;;;;;;;10.73;9.00;;;2.70;75.10;;;;;;5054112;28;20025;-78
2021/01/30 12:23:18;;;;;;;13.20;9.40;;;2.80;75.30;;;;;;5072576;28;20035;-76
2021/01/30 12:25:44;;;;;;;11.63;9.37;;;2.80;75.20;;;;;;5070253;28;20036;-77
2021/01/30 12:28:17;;;;;;;11.17;9.37;;;2.80;75.40;;;;;;5082860;28;20069;-77
2021/01/30 12:30:43;;;;;;;9.55;8.48;;;2.80;75.60;;;;;;5091979;28;20020;-77
2021/01/30 12:33:09;;;;;;;12.23;9.13;;;2.90;74.80;;;;;;5090873;28;20032;-76
2021/01/30 12:35:35;;;;;;;13.43;9.87;;;2.90;75.10;;;;;;5073815;28;20502;-77
2021/01/30 12:38:02;;;;;;;10.77;8.03;;;3.00;75.80;;;;;;5090499;28;20067;-77
2021/01/30 12:40:35;;;;;;;8.57;7.73;;;3.10;74.30;;;;;;5091558;28;20032;-78
2021/01/30 12:43:00;;;;;;;9.70;7.53;;;3.10;74.40;;;;;;5091381;28;20021;-78
2021/01/30 12:45:26;;;;;;;8.40;7.50;;;3.00;73.80;;;;;;5091177;28;20092;-77
2021/01/30 12:47:52;;;;;;;9.23;8.13;;;3.00;74.40;;;;;;5092085;28;20095;-77
2021/01/30 12:50:21;;;;;;;9.17;8.20;;;3.00;74.40;;;;;;5057869;28;20118;-77
2021/01/30 12:52:46;;;;;;;11.03;7.57;;;3.00;73.90;;;;;;5083467;28;20022;-79
2021/01/30 12:55:13;;;;;;;11.97;8.20;;;3.10;74.70;;;;;;5082141;28;20098;-78
2021/01/30 12:57:41;;;;;;;9.03;8.10;;;3.20;74.50;;;;;;5086374;28;20065;-78
2021/01/30 13:00:13;;;;;;;9.70;7.57;;;3.30;74.40;;;;;;5063185;28;20592;-78
2021/01/30 13:02:39;;;;;;;7.83;7.03;;;3.30;73.90;;;;;;5071835;28;20033;-78
2021/01/30 13:05:06;;;;;;;9.57;6.90;;;3.30;73.50;;;;;;5057214;28;20039;-78
2021/01/30 13:07:32;;;;;;;6.97;6.37;;;3.30;73.00;;;;;;5074425;28;20073;-78
2021/01/30 13:09:59;;;;;;;6.57;5.93;;;3.20;73.20;;;;;;5070086;28;20025;-77
2021/01/30 13:12:24;;;;;;;8.57;7.67;;;3.20;72.70;;;;;;5089706;28;20050;-79
2021/01/30 13:14:50;;;;;;;7.60;6.83;;;3.20;73.90;;;;;;5066800;28;20452;-81
2021/01/30 13:17:16;;;;;;;6.87;6.17;;;3.30;73.00;;;;;;5072094;28;20032;-78